sensor_id;sensor_type;location;lat;lon;timestamp;P1;durP1;ratioP1;P2;durP2;ratioP2
72891;SDS011;61032;50.782;6.818;2023-11-21T00:00:22;13.48;;;7.63;;
72891;SDS011;61032;50.782;6.818;2023-11-21T00:01:22;12.07;;;7.07;;
72891;SDS011;61032;50.782;6.818;2023-11-21T00:02:23;13.52;;;7.38;;
72891;SDS011;61032;50.782;6.818;2023-11-21T00:03:23;13.20;;;7.63;;
72891;SDS011;61032;50.782;6.818;2023-11-21T00:04:24;15.65;;;8.57;;
72891;SDS011;61032;50.782;6.818;2023-11-21T00:05:24;12.60;;;6.57;;
72891;SDS011;61032;50.782;6.818;2023-11-21T00:06:25;11.35;;;7.13;;
72891;SDS011;61032;50.782;6.818;2023-11-21T00:07:25;11.75;;;7.05;;
72891;SDS011;61032;50.782;6.818;2023-11-21T00:08:25;12.07;;;6.57;;
72891;SDS011;61032;50.782;6.818;2023-11-21T00:09:27;10.65;;;6.70;;
72891;SDS011;61032;50.782;6.818;2023-11-21T00:10:27;12.50;;;6.55;;
72891;SDS011;61032;50.782;6.818;2023-11-21T00:11:28;10.77;;;6.72;;
72891;SDS011;61032;50.782;6.818;2023-11-21T00:12:29;13.02;;;6.32;;
72891;SDS011;61032;50.782;6.818;2023-11-21T00:13:29;12.50;;;6.70;;
72891;SDS011;61032;50.782;6.818;2023-11-21T00:14:29;14.50;;;7.45;;
72891;SDS011;61032;50.782;6.818;2023-11-21T00:15:30;14.07;;;6.95;;
72891;SDS011;61032;50.782;6.818;2023-11-21T00:16:30;13.85;;;6.88;;
72891;SDS011;61032;50.782;6.818;2023-11-21T00:17:30;14.02;;;6.53;;
72891;SDS011;61032;50.782;6.818;2023-11-21T00:18:31;14.70;;;7.63;;
72891;SDS011;61032;50.782;6.818;2023-11-21T00:19:31;13.27;;;6.85;;
72891;SDS011;61032;50.782;6.818;2023-11-21T00:20:33;12.00;;;6.82;;
72891;SDS011;61032;50.782;6.818;2023-11-21T00:21:33;17.50;;;8.52;;
72891;SDS011;61032;50.782;6.818;2023-11-21T00:22:34;14.32;;;6.82;;
72891;SDS011;61032;50.782;6.818;2023-11-21T00:23:35;12.38;;;7.75;;
72891;SDS011;61032;50.782;6.818;2023-11-21T00:24:35;12.18;;;6.07;;
72891;SDS011;61032;50.782;6.818;2023-11-21T00:25:36;15.80;;;6.93;;
72891;SDS011;61032;50.782;6.818;2023-11-21T00:26:36;11.40;;;7.07;;
72891;SDS011;61032;50.782;6.818;2023-11-21T00:27:37;13.98;;;6.15;;
72891;SDS011;61032;50.782;6.818;2023-11-21T00:28:38;14.98;;;7.32;;
72891;SDS011;61032;50.782;6.818;2023-11-21T00:29:38;16.75;;;7.30;;
72891;SDS011;61032;50.782;6.818;2023-11-21T00:30:38;14.18;;;7.22;;
72891;SDS011;61032;50.782;6.818;2023-11-21T00:31:39;13.60;;;7.35;;
72891;SDS011;61032;50.782;6.818;2023-11-21T00:32:39;17.08;;;7.18;;
72891;SDS011;61032;50.782;6.818;2023-11-21T00:33:40;12.57;;;6.35;;
72891;SDS011;61032;50.782;6.818;2023-11-21T00:34:40;15.38;;;7.38;;
72891;SDS011;61032;50.782;6.818;2023-11-21T00:35:40;15.60;;;7.22;;
72891;SDS011;61032;50.782;6.818;2023-11-21T00:36:41;11.73;;;6.32;;
72891;SDS011;61032;50.782;6.818;2023-11-21T00:37:41;14.80;;;6.57;;
72891;SDS011;61032;50.782;6.818;2023-11-21T00:38:42;14.00;;;6.65;;
72891;SDS011;61032;50.782;6.818;2023-11-21T00:39:42;12.40;;;6.22;;
72891;SDS011;61032;50.782;6.818;2023-11-21T00:40:43;11.88;;;6.22;;
72891;SDS011;61032;50.782;6.818;2023-11-21T00:41:43;13.52;;;6.13;;
72891;SDS011;61032;50.782;6.818;2023-11-21T00:42:45;14.40;;;6.93;;
72891;SDS011;61032;50.782;6.818;2023-11-21T00:43:46;11.93;;;6.78;;
72891;SDS011;61032;50.782;6.818;2023-11-21T00:44:46;12.63;;;6.78;;
72891;SDS011;61032;50.782;6.818;2023-11-21T00:45:47;13.77;;;7.50;;
72891;SDS011;61032;50.782;6.818;2023-11-21T00:47:50;14.07;;;6.70;;
72891;SDS011;61032;50.782;6.818;2023-11-21T00:48:50;16.40;;;8.15;;
72891;SDS011;61032;50.782;6.818;2023-11-21T00:49:51;13.98;;;6.82;;
72891;SDS011;61032;50.782;6.818;2023-11-21T00:50:51;15.68;;;7.35;;
72891;SDS011;61032;50.782;6.818;2023-11-21T00:51:51;17.15;;;7.70;;
72891;SDS011;61032;50.782;6.818;2023-11-21T00:52:52;14.98;;;7.30;;
72891;SDS011;61032;50.782;6.818;2023-11-21T00:53:52;15.25;;;7.35;;
72891;SDS011;61032;50.782;6.818;2023-11-21T00:54:52;14.68;;;7.18;;
72891;SDS011;61032;50.782;6.818;2023-11-21T00:55:53;13.60;;;6.72;;
72891;SDS011;61032;50.782;6.818;2023-11-21T00:56:57;15.00;;;7.00;;
72891;SDS011;61032;50.782;6.818;2023-11-21T00:57:57;16.95;;;7.25;;
72891;SDS011;61032;50.782;6.818;2023-11-21T00:58:58;14.05;;;7.20;;
72891;SDS011;61032;50.782;6.818;2023-11-21T00:59:58;13.20;;;7.30;;
72891;SDS011;61032;50.782;6.818;2023-11-21T01:00:59;16.02;;;8.05;;
72891;SDS011;61032;50.782;6.818;2023-11-21T01:01:59;15.57;;;8.00;;
72891;SDS011;61032;50.782;6.818;2023-11-21T01:03:01;15.70;;;7.53;;
72891;SDS011;61032;50.782;6.818;2023-11-21T01:04:02;17.73;;;7.80;;
72891;SDS011;61032;50.782;6.818;2023-11-21T01:05:02;17.42;;;8.77;;
72891;SDS011;61032;50.782;6.818;2023-11-21T01:06:03;12.55;;;7.68;;
72891;SDS011;61032;50.782;6.818;2023-11-21T01:07:07;16.42;;;7.40;;
72891;SDS011;61032;50.782;6.818;2023-11-21T01:08:07;16.45;;;8.13;;
72891;SDS011;61032;50.782;6.818;2023-11-21T01:09:08;16.15;;;8.25;;
72891;SDS011;61032;50.782;6.818;2023-11-21T01:10:08;17.95;;;8.27;;
72891;SDS011;61032;50.782;6.818;2023-11-21T01:11:10;19.60;;;9.32;;
72891;SDS011;61032;50.782;6.818;2023-11-21T01:12:12;15.82;;;8.15;;
72891;SDS011;61032;50.782;6.818;2023-11-21T01:13:12;19.20;;;8.88;;
72891;SDS011;61032;50.782;6.818;2023-11-21T01:14:15;20.00;;;8.30;;
72891;SDS011;61032;50.782;6.818;2023-11-21T01:15:17;15.32;;;8.23;;
72891;SDS011;61032;50.782;6.818;2023-11-21T01:16:17;15.18;;;8.18;;
72891;SDS011;61032;50.782;6.818;2023-11-21T01:17:18;14.52;;;8.38;;
72891;SDS011;61032;50.782;6.818;2023-11-21T01:18:18;16.30;;;8.38;;
72891;SDS011;61032;50.782;6.818;2023-11-21T01:19:19;17.08;;;9.10;;
72891;SDS011;61032;50.782;6.818;2023-11-21T01:20:19;19.00;;;9.15;;
72891;SDS011;61032;50.782;6.818;2023-11-21T01:21:20;18.58;;;8.27;;
72891;SDS011;61032;50.782;6.818;2023-11-21T01:22:20;17.55;;;8.85;;
72891;SDS011;61032;50.782;6.818;2023-11-21T01:23:26;27.42;;;8.73;;
72891;SDS011;61032;50.782;6.818;2023-11-21T01:24:27;17.45;;;8.15;;
72891;SDS011;61032;50.782;6.818;2023-11-21T01:25:27;18.23;;;9.23;;
72891;SDS011;61032;50.782;6.818;2023-11-21T01:26:27;18.08;;;9.15;;
72891;SDS011;61032;50.782;6.818;2023-11-21T01:27:28;16.80;;;9.20;;
72891;SDS011;61032;50.782;6.818;2023-11-21T01:28:28;17.13;;;8.32;;
72891;SDS011;61032;50.782;6.818;2023-11-21T01:29:28;18.17;;;9.35;;
72891;SDS011;61032;50.782;6.818;2023-11-21T01:30:29;17.27;;;9.80;;
72891;SDS011;61032;50.782;6.818;2023-11-21T01:31:29;19.10;;;9.30;;
72891;SDS011;61032;50.782;6.818;2023-11-21T01:32:29;22.98;;;8.95;;
72891;SDS011;61032;50.782;6.818;2023-11-21T01:33:30;18.00;;;8.82;;
72891;SDS011;61032;50.782;6.818;2023-11-21T01:34:30;18.60;;;8.82;;
72891;SDS011;61032;50.782;6.818;2023-11-21T01:35:30;18.50;;;9.35;;
72891;SDS011;61032;50.782;6.818;2023-11-21T01:36:31;18.45;;;8.65;;
72891;SDS011;61032;50.782;6.818;2023-11-21T01:37:32;18.42;;;8.88;;
72891;SDS011;61032;50.782;6.818;2023-11-21T01:38:33;19.80;;;8.73;;
72891;SDS011;61032;50.782;6.818;2023-11-21T01:39:33;21.25;;;8.85;;
72891;SDS011;61032;50.782;6.818;2023-11-21T01:40:34;19.23;;;8.35;;
72891;SDS011;61032;50.782;6.818;2023-11-21T01:41:35;20.20;;;8.75;;
72891;SDS011;61032;50.782;6.818;2023-11-21T01:42:35;21.30;;;9.50;;
72891;SDS011;61032;50.782;6.818;2023-11-21T01:43:35;20.20;;;9.50;;
72891;SDS011;61032;50.782;6.818;2023-11-21T01:44:37;17.85;;;9.07;;
72891;SDS011;61032;50.782;6.818;2023-11-21T01:45:37;18.08;;;8.73;;
72891;SDS011;61032;50.782;6.818;2023-11-21T01:46:39;18.92;;;8.80;;
72891;SDS011;61032;50.782;6.818;2023-11-21T01:47:41;20.60;;;9.07;;
72891;SDS011;61032;50.782;6.818;2023-11-21T01:48:44;18.38;;;9.30;;
72891;SDS011;61032;50.782;6.818;2023-11-21T01:49:45;22.25;;;10.18;;
72891;SDS011;61032;50.782;6.818;2023-11-21T01:50:46;21.70;;;10.13;;
72891;SDS011;61032;50.782;6.818;2023-11-21T01:51:47;25.23;;;9.40;;
72891;SDS011;61032;50.782;6.818;2023-11-21T01:52:49;20.45;;;9.45;;
72891;SDS011;61032;50.782;6.818;2023-11-21T01:53:50;21.63;;;10.18;;
72891;SDS011;61032;50.782;6.818;2023-11-21T01:54:51;20.55;;;10.07;;
72891;SDS011;61032;50.782;6.818;2023-11-21T01:55:52;19.77;;;9.35;;
72891;SDS011;61032;50.782;6.818;2023-11-21T01:56:53;18.10;;;8.93;;
72891;SDS011;61032;50.782;6.818;2023-11-21T01:57:54;22.15;;;9.38;;
72891;SDS011;61032;50.782;6.818;2023-11-21T01:58:57;20.02;;;9.98;;
72891;SDS011;61032;50.782;6.818;2023-11-21T01:59:57;20.02;;;10.38;;
72891;SDS011;61032;50.782;6.818;2023-11-21T02:01:01;21.45;;;10.27;;
72891;SDS011;61032;50.782;6.818;2023-11-21T02:02:01;22.55;;;10.73;;
72891;SDS011;61032;50.782;6.818;2023-11-21T02:03:02;21.67;;;10.43;;
72891;SDS011;61032;50.782;6.818;2023-11-21T02:04:04;21.17;;;11.07;;
72891;SDS011;61032;50.782;6.818;2023-11-21T02:05:04;20.73;;;9.95;;
72891;SDS011;61032;50.782;6.818;2023-11-21T02:06:05;20.83;;;10.00;;
72891;SDS011;61032;50.782;6.818;2023-11-21T02:07:05;19.88;;;9.77;;
72891;SDS011;61032;50.782;6.818;2023-11-21T02:08:05;24.55;;;9.65;;
72891;SDS011;61032;50.782;6.818;2023-11-21T02:09:06;19.48;;;9.55;;
72891;SDS011;61032;50.782;6.818;2023-11-21T02:10:07;18.13;;;9.50;;
72891;SDS011;61032;50.782;6.818;2023-11-21T02:11:07;21.13;;;9.52;;
72891;SDS011;61032;50.782;6.818;2023-11-21T02:12:09;19.55;;;11.43;;
72891;SDS011;61032;50.782;6.818;2023-11-21T02:13:12;19.90;;;10.35;;
72891;SDS011;61032;50.782;6.818;2023-11-21T02:14:12;19.90;;;9.88;;
72891;SDS011;61032;50.782;6.818;2023-11-21T02:15:14;22.30;;;10.32;;
72891;SDS011;61032;50.782;6.818;2023-11-21T02:16:20;16.35;;;9.07;;
72891;SDS011;61032;50.782;6.818;2023-11-21T02:17:21;21.45;;;9.00;;
72891;SDS011;61032;50.782;6.818;2023-11-21T02:18:21;19.58;;;10.15;;
72891;SDS011;61032;50.782;6.818;2023-11-21T02:19:22;18.33;;;9.95;;
72891;SDS011;61032;50.782;6.818;2023-11-21T02:20:25;19.25;;;10.07;;
72891;SDS011;61032;50.782;6.818;2023-11-21T02:21:26;15.55;;;8.90;;
72891;SDS011;61032;50.782;6.818;2023-11-21T02:22:29;18.92;;;9.45;;
72891;SDS011;61032;50.782;6.818;2023-11-21T02:23:32;18.63;;;9.88;;
72891;SDS011;61032;50.782;6.818;2023-11-21T02:24:33;21.15;;;10.27;;
72891;SDS011;61032;50.782;6.818;2023-11-21T02:25:33;19.85;;;10.15;;
72891;SDS011;61032;50.782;6.818;2023-11-21T02:26:34;17.27;;;8.77;;
72891;SDS011;61032;50.782;6.818;2023-11-21T02:27:35;20.42;;;9.63;;
72891;SDS011;61032;50.782;6.818;2023-11-21T02:28:36;24.80;;;10.68;;
72891;SDS011;61032;50.782;6.818;2023-11-21T02:29:38;19.52;;;9.43;;
72891;SDS011;61032;50.782;6.818;2023-11-21T02:30:39;22.33;;;9.77;;
72891;SDS011;61032;50.782;6.818;2023-11-21T02:31:39;19.27;;;9.63;;
72891;SDS011;61032;50.782;6.818;2023-11-21T02:33:48;21.02;;;10.10;;
72891;SDS011;61032;50.782;6.818;2023-11-21T02:34:48;18.20;;;9.35;;
72891;SDS011;61032;50.782;6.818;2023-11-21T02:35:49;20.30;;;10.07;;
72891;SDS011;61032;50.782;6.818;2023-11-21T02:36:54;18.52;;;9.23;;
72891;SDS011;61032;50.782;6.818;2023-11-21T02:37:55;23.25;;;10.55;;
72891;SDS011;61032;50.782;6.818;2023-11-21T02:38:55;20.50;;;10.35;;
72891;SDS011;61032;50.782;6.818;2023-11-21T02:39:56;20.10;;;10.00;;
72891;SDS011;61032;50.782;6.818;2023-11-21T02:40:57;20.73;;;10.15;;
72891;SDS011;61032;50.782;6.818;2023-11-21T02:41:59;18.80;;;9.38;;
72891;SDS011;61032;50.782;6.818;2023-11-21T02:42:59;22.40;;;9.73;;
72891;SDS011;61032;50.782;6.818;2023-11-21T02:44:00;19.40;;;9.40;;
72891;SDS011;61032;50.782;6.818;2023-11-21T02:45:00;18.48;;;9.73;;
72891;SDS011;61032;50.782;6.818;2023-11-21T02:46:01;19.02;;;9.15;;
72891;SDS011;61032;50.782;6.818;2023-11-21T02:47:01;22.00;;;10.02;;
72891;SDS011;61032;50.782;6.818;2023-11-21T02:48:01;18.00;;;8.52;;
72891;SDS011;61032;50.782;6.818;2023-11-21T02:49:02;19.67;;;9.65;;
72891;SDS011;61032;50.782;6.818;2023-11-21T02:50:04;19.98;;;10.05;;
72891;SDS011;61032;50.782;6.818;2023-11-21T02:51:06;19.75;;;10.40;;
72891;SDS011;61032;50.782;6.818;2023-11-21T02:52:06;21.20;;;9.82;;
72891;SDS011;61032;50.782;6.818;2023-11-21T02:53:06;19.55;;;11.23;;
72891;SDS011;61032;50.782;6.818;2023-11-21T02:54:07;17.17;;;9.75;;
72891;SDS011;61032;50.782;6.818;2023-11-21T02:55:08;16.38;;;9.50;;
72891;SDS011;61032;50.782;6.818;2023-11-21T02:56:09;21.63;;;10.32;;
72891;SDS011;61032;50.782;6.818;2023-11-21T02:57:09;20.55;;;10.30;;
72891;SDS011;61032;50.782;6.818;2023-11-21T02:58:09;19.98;;;9.57;;
72891;SDS011;61032;50.782;6.818;2023-11-21T02:59:10;17.13;;;9.35;;
72891;SDS011;61032;50.782;6.818;2023-11-21T03:00:10;18.67;;;9.80;;
72891;SDS011;61032;50.782;6.818;2023-11-21T03:01:12;18.00;;;9.23;;
72891;SDS011;61032;50.782;6.818;2023-11-21T03:02:13;21.75;;;9.50;;
72891;SDS011;61032;50.782;6.818;2023-11-21T03:03:13;20.08;;;9.65;;
72891;SDS011;61032;50.782;6.818;2023-11-21T03:04:14;17.25;;;9.35;;
72891;SDS011;61032;50.782;6.818;2023-11-21T03:05:17;22.10;;;9.95;;
72891;SDS011;61032;50.782;6.818;2023-11-21T03:06:18;18.50;;;9.40;;
72891;SDS011;61032;50.782;6.818;2023-11-21T03:07:19;21.65;;;8.73;;
72891;SDS011;61032;50.782;6.818;2023-11-21T03:08:19;21.58;;;9.68;;
72891;SDS011;61032;50.782;6.818;2023-11-21T03:09:20;18.67;;;9.88;;
72891;SDS011;61032;50.782;6.818;2023-11-21T03:10:20;21.55;;;10.10;;
72891;SDS011;61032;50.782;6.818;2023-11-21T03:11:20;17.98;;;9.95;;
72891;SDS011;61032;50.782;6.818;2023-11-21T03:12:21;21.77;;;9.82;;
72891;SDS011;61032;50.782;6.818;2023-11-21T03:13:21;22.20;;;9.70;;
72891;SDS011;61032;50.782;6.818;2023-11-21T03:14:21;21.27;;;9.73;;
72891;SDS011;61032;50.782;6.818;2023-11-21T03:15:22;18.23;;;9.43;;
72891;SDS011;61032;50.782;6.818;2023-11-21T03:16:22;20.08;;;9.98;;
72891;SDS011;61032;50.782;6.818;2023-11-21T03:17:22;21.92;;;9.77;;
72891;SDS011;61032;50.782;6.818;2023-11-21T03:18:24;20.55;;;9.40;;
72891;SDS011;61032;50.782;6.818;2023-11-21T03:19:24;17.20;;;8.98;;
72891;SDS011;61032;50.782;6.818;2023-11-21T03:20:25;15.20;;;8.95;;
72891;SDS011;61032;50.782;6.818;2023-11-21T03:21:25;17.83;;;9.77;;
72891;SDS011;61032;50.782;6.818;2023-11-21T03:22:26;18.63;;;8.90;;
72891;SDS011;61032;50.782;6.818;2023-11-21T03:23:26;17.13;;;8.52;;
72891;SDS011;61032;50.782;6.818;2023-11-21T03:24:27;17.90;;;8.98;;
72891;SDS011;61032;50.782;6.818;2023-11-21T03:25:27;15.23;;;9.20;;
72891;SDS011;61032;50.782;6.818;2023-11-21T03:26:28;18.13;;;9.13;;
72891;SDS011;61032;50.782;6.818;2023-11-21T03:27:29;18.73;;;9.82;;
72891;SDS011;61032;50.782;6.818;2023-11-21T03:28:30;16.08;;;8.48;;
72891;SDS011;61032;50.782;6.818;2023-11-21T03:29:30;20.45;;;9.25;;
72891;SDS011;61032;50.782;6.818;2023-11-21T03:30:31;21.00;;;10.15;;
72891;SDS011;61032;50.782;6.818;2023-11-21T03:31:31;17.45;;;9.60;;
72891;SDS011;61032;50.782;6.818;2023-11-21T03:32:31;16.58;;;8.93;;
72891;SDS011;61032;50.782;6.818;2023-11-21T03:33:33;18.23;;;8.90;;
72891;SDS011;61032;50.782;6.818;2023-11-21T03:34:34;19.00;;;8.73;;
72891;SDS011;61032;50.782;6.818;2023-11-21T03:35:35;17.63;;;9.55;;
72891;SDS011;61032;50.782;6.818;2023-11-21T03:36:36;17.13;;;8.93;;
72891;SDS011;61032;50.782;6.818;2023-11-21T03:37:36;17.88;;;8.43;;
72891;SDS011;61032;50.782;6.818;2023-11-21T03:38:41;17.50;;;9.43;;
72891;SDS011;61032;50.782;6.818;2023-11-21T03:39:41;19.63;;;9.32;;
72891;SDS011;61032;50.782;6.818;2023-11-21T03:40:42;17.35;;;8.43;;
72891;SDS011;61032;50.782;6.818;2023-11-21T03:41:42;17.55;;;9.32;;
72891;SDS011;61032;50.782;6.818;2023-11-21T03:42:43;15.88;;;8.63;;
72891;SDS011;61032;50.782;6.818;2023-11-21T03:43:43;18.33;;;9.57;;
72891;SDS011;61032;50.782;6.818;2023-11-21T03:44:43;16.48;;;8.65;;
72891;SDS011;61032;50.782;6.818;2023-11-21T03:45:44;17.63;;;8.40;;
72891;SDS011;61032;50.782;6.818;2023-11-21T03:46:44;16.20;;;8.38;;
72891;SDS011;61032;50.782;6.818;2023-11-21T03:47:45;15.43;;;8.60;;
72891;SDS011;61032;50.782;6.818;2023-11-21T03:48:45;14.55;;;7.65;;
72891;SDS011;61032;50.782;6.818;2023-11-21T03:49:45;15.98;;;8.20;;
72891;SDS011;61032;50.782;6.818;2023-11-21T03:50:46;14.88;;;7.93;;
72891;SDS011;61032;50.782;6.818;2023-11-21T03:51:47;20.05;;;7.80;;
72891;SDS011;61032;50.782;6.818;2023-11-21T03:52:47;14.15;;;8.57;;
72891;SDS011;61032;50.782;6.818;2023-11-21T03:53:48;12.55;;;7.72;;
72891;SDS011;61032;50.782;6.818;2023-11-21T03:54:48;18.95;;;8.48;;
72891;SDS011;61032;50.782;6.818;2023-11-21T03:55:49;15.00;;;7.32;;
72891;SDS011;61032;50.782;6.818;2023-11-21T03:56:50;17.38;;;8.32;;
72891;SDS011;61032;50.782;6.818;2023-11-21T03:57:50;21.02;;;7.22;;
72891;SDS011;61032;50.782;6.818;2023-11-21T03:58:51;15.10;;;7.90;;
72891;SDS011;61032;50.782;6.818;2023-11-21T03:59:51;12.68;;;7.07;;
72891;SDS011;61032;50.782;6.818;2023-11-21T04:00:52;10.75;;;6.10;;
72891;SDS011;61032;50.782;6.818;2023-11-21T04:01:54;13.82;;;7.28;;
72891;SDS011;61032;50.782;6.818;2023-11-21T04:02:55;14.13;;;7.97;;
72891;SDS011;61032;50.782;6.818;2023-11-21T04:03:55;14.27;;;7.28;;
72891;SDS011;61032;50.782;6.818;2023-11-21T04:04:57;15.52;;;7.20;;
72891;SDS011;61032;50.782;6.818;2023-11-21T04:05:57;14.07;;;6.60;;
72891;SDS011;61032;50.782;6.818;2023-11-21T04:06:58;15.13;;;6.60;;
72891;SDS011;61032;50.782;6.818;2023-11-21T04:07:58;13.00;;;7.00;;
72891;SDS011;61032;50.782;6.818;2023-11-21T04:08:58;12.18;;;6.28;;
72891;SDS011;61032;50.782;6.818;2023-11-21T04:09:59;14.23;;;7.28;;
72891;SDS011;61032;50.782;6.818;2023-11-21T04:10:59;13.23;;;7.60;;
72891;SDS011;61032;50.782;6.818;2023-11-21T04:12:01;12.57;;;7.20;;
72891;SDS011;61032;50.782;6.818;2023-11-21T04:13:01;14.07;;;7.10;;
72891;SDS011;61032;50.782;6.818;2023-11-21T04:14:01;13.75;;;6.90;;
72891;SDS011;61032;50.782;6.818;2023-11-21T04:15:02;12.43;;;6.85;;
72891;SDS011;61032;50.782;6.818;2023-11-21T04:16:03;14.82;;;6.47;;
72891;SDS011;61032;50.782;6.818;2023-11-21T04:17:04;14.57;;;7.07;;
72891;SDS011;61032;50.782;6.818;2023-11-21T04:18:05;12.68;;;6.97;;
72891;SDS011;61032;50.782;6.818;2023-11-21T04:19:05;11.13;;;6.35;;
72891;SDS011;61032;50.782;6.818;2023-11-21T04:20:06;11.75;;;6.63;;
72891;SDS011;61032;50.782;6.818;2023-11-21T04:21:09;12.90;;;6.68;;
72891;SDS011;61032;50.782;6.818;2023-11-21T04:22:09;10.57;;;6.50;;
72891;SDS011;61032;50.782;6.818;2023-11-21T04:23:09;12.40;;;6.28;;
72891;SDS011;61032;50.782;6.818;2023-11-21T04:24:10;12.23;;;6.53;;
72891;SDS011;61032;50.782;6.818;2023-11-21T04:25:11;13.70;;;6.32;;
72891;SDS011;61032;50.782;6.818;2023-11-21T04:26:11;12.63;;;6.65;;
72891;SDS011;61032;50.782;6.818;2023-11-21T04:27:12;11.75;;;6.70;;
72891;SDS011;61032;50.782;6.818;2023-11-21T04:28:13;12.25;;;6.03;;
72891;SDS011;61032;50.782;6.818;2023-11-21T04:29:13;15.63;;;6.72;;
72891;SDS011;61032;50.782;6.818;2023-11-21T04:30:14;13.85;;;6.35;;
72891;SDS011;61032;50.782;6.818;2023-11-21T04:31:14;12.55;;;6.38;;
72891;SDS011;61032;50.782;6.818;2023-11-21T04:32:15;15.32;;;6.20;;
72891;SDS011;61032;50.782;6.818;2023-11-21T04:33:16;14.45;;;6.80;;
72891;SDS011;61032;50.782;6.818;2023-11-21T04:34:16;13.10;;;6.45;;
72891;SDS011;61032;50.782;6.818;2023-11-21T04:35:16;11.90;;;6.65;;
72891;SDS011;61032;50.782;6.818;2023-11-21T04:36:17;13.68;;;7.40;;
72891;SDS011;61032;50.782;6.818;2023-11-21T04:37:17;12.07;;;6.57;;
72891;SDS011;61032;50.782;6.818;2023-11-21T04:38:17;13.90;;;6.35;;
72891;SDS011;61032;50.782;6.818;2023-11-21T04:39:19;11.02;;;6.40;;
72891;SDS011;61032;50.782;6.818;2023-11-21T04:40:20;12.35;;;6.65;;
72891;SDS011;61032;50.782;6.818;2023-11-21T04:41:20;13.85;;;7.13;;
72891;SDS011;61032;50.782;6.818;2023-11-21T04:42:21;12.70;;;7.60;;
72891;SDS011;61032;50.782;6.818;2023-11-21T04:43:21;11.55;;;6.45;;
72891;SDS011;61032;50.782;6.818;2023-11-21T04:44:22;13.93;;;6.65;;
72891;SDS011;61032;50.782;6.818;2023-11-21T04:45:22;12.88;;;6.70;;
72891;SDS011;61032;50.782;6.818;2023-11-21T04:46:23;13.65;;;6.75;;
72891;SDS011;61032;50.782;6.818;2023-11-21T04:47:23;13.52;;;7.22;;
72891;SDS011;61032;50.782;6.818;2023-11-21T04:48:23;13.25;;;6.47;;
72891;SDS011;61032;50.782;6.818;2023-11-21T04:49:24;14.77;;;7.28;;
72891;SDS011;61032;50.782;6.818;2023-11-21T04:50:24;13.55;;;6.60;;
72891;SDS011;61032;50.782;6.818;2023-11-21T04:51:27;14.20;;;6.57;;
72891;SDS011;61032;50.782;6.818;2023-11-21T04:52:27;12.27;;;7.10;;
72891;SDS011;61032;50.782;6.818;2023-11-21T04:53:27;12.43;;;6.68;;
72891;SDS011;61032;50.782;6.818;2023-11-21T04:54:28;13.95;;;6.68;;
72891;SDS011;61032;50.782;6.818;2023-11-21T04:55:29;14.00;;;6.57;;
72891;SDS011;61032;50.782;6.818;2023-11-21T04:56:29;11.60;;;6.32;;
72891;SDS011;61032;50.782;6.818;2023-11-21T04:57:29;13.95;;;6.22;;
72891;SDS011;61032;50.782;6.818;2023-11-21T04:58:30;12.00;;;6.43;;
72891;SDS011;61032;50.782;6.818;2023-11-21T04:59:30;12.25;;;6.32;;
72891;SDS011;61032;50.782;6.818;2023-11-21T05:00:30;13.70;;;6.70;;
72891;SDS011;61032;50.782;6.818;2023-11-21T05:01:31;13.85;;;6.50;;
72891;SDS011;61032;50.782;6.818;2023-11-21T05:02:32;15.10;;;6.85;;
72891;SDS011;61032;50.782;6.818;2023-11-21T05:04:34;11.27;;;6.85;;
72891;SDS011;61032;50.782;6.818;2023-11-21T05:05:35;14.23;;;7.30;;
72891;SDS011;61032;50.782;6.818;2023-11-21T05:06:35;13.32;;;6.05;;
72891;SDS011;61032;50.782;6.818;2023-11-21T05:07:35;12.88;;;6.07;;
72891;SDS011;61032;50.782;6.818;2023-11-21T05:08:36;12.80;;;6.50;;
72891;SDS011;61032;50.782;6.818;2023-11-21T05:09:40;14.35;;;6.80;;
72891;SDS011;61032;50.782;6.818;2023-11-21T05:10:41;11.05;;;6.18;;
72891;SDS011;61032;50.782;6.818;2023-11-21T05:11:41;11.38;;;6.03;;
72891;SDS011;61032;50.782;6.818;2023-11-21T05:12:42;11.95;;;6.10;;
72891;SDS011;61032;50.782;6.818;2023-11-21T05:13:42;16.77;;;7.00;;
72891;SDS011;61032;50.782;6.818;2023-11-21T05:14:43;14.13;;;6.70;;
72891;SDS011;61032;50.782;6.818;2023-11-21T05:15:43;11.30;;;5.88;;
72891;SDS011;61032;50.782;6.818;2023-11-21T05:16:44;14.65;;;6.43;;
72891;SDS011;61032;50.782;6.818;2023-11-21T05:17:45;11.20;;;5.78;;
72891;SDS011;61032;50.782;6.818;2023-11-21T05:18:45;10.93;;;6.43;;
72891;SDS011;61032;50.782;6.818;2023-11-21T05:19:46;12.02;;;5.47;;
72891;SDS011;61032;50.782;6.818;2023-11-21T05:20:48;11.35;;;5.70;;
72891;SDS011;61032;50.782;6.818;2023-11-21T05:21:48;12.65;;;5.60;;
72891;SDS011;61032;50.782;6.818;2023-11-21T05:22:49;12.40;;;6.03;;
72891;SDS011;61032;50.782;6.818;2023-11-21T05:23:50;10.35;;;5.75;;
72891;SDS011;61032;50.782;6.818;2023-11-21T05:24:50;10.30;;;6.05;;
72891;SDS011;61032;50.782;6.818;2023-11-21T05:25:50;11.63;;;5.82;;
72891;SDS011;61032;50.782;6.818;2023-11-21T05:26:51;10.68;;;5.43;;
72891;SDS011;61032;50.782;6.818;2023-11-21T05:27:51;16.63;;;5.93;;
72891;SDS011;61032;50.782;6.818;2023-11-21T05:28:53;13.23;;;6.15;;
72891;SDS011;61032;50.782;6.818;2023-11-21T05:29:53;11.95;;;6.10;;
72891;SDS011;61032;50.782;6.818;2023-11-21T05:30:53;16.58;;;7.07;;
72891;SDS011;61032;50.782;6.818;2023-11-21T05:31:54;12.35;;;6.78;;
72891;SDS011;61032;50.782;6.818;2023-11-21T05:32:55;14.65;;;6.35;;
72891;SDS011;61032;50.782;6.818;2023-11-21T05:33:55;11.18;;;5.65;;
72891;SDS011;61032;50.782;6.818;2023-11-21T05:34:55;11.82;;;6.20;;
72891;SDS011;61032;50.782;6.818;2023-11-21T05:35:56;13.20;;;6.72;;
72891;SDS011;61032;50.782;6.818;2023-11-21T05:36:56;11.20;;;6.72;;
72891;SDS011;61032;50.782;6.818;2023-11-21T05:37:58;12.55;;;6.70;;
72891;SDS011;61032;50.782;6.818;2023-11-21T05:38:58;13.27;;;7.47;;
72891;SDS011;61032;50.782;6.818;2023-11-21T05:39:59;15.00;;;7.30;;
72891;SDS011;61032;50.782;6.818;2023-11-21T05:41:04;16.92;;;8.65;;
72891;SDS011;61032;50.782;6.818;2023-11-21T05:42:05;15.95;;;8.68;;
72891;SDS011;61032;50.782;6.818;2023-11-21T05:43:06;15.75;;;7.78;;
72891;SDS011;61032;50.782;6.818;2023-11-21T05:44:07;15.18;;;8.13;;
72891;SDS011;61032;50.782;6.818;2023-11-21T05:45:07;15.05;;;7.47;;
72891;SDS011;61032;50.782;6.818;2023-11-21T05:46:09;15.48;;;7.40;;
72891;SDS011;61032;50.782;6.818;2023-11-21T05:47:10;15.82;;;8.00;;
72891;SDS011;61032;50.782;6.818;2023-11-21T05:48:10;14.57;;;7.47;;
72891;SDS011;61032;50.782;6.818;2023-11-21T05:49:10;16.38;;;7.30;;
72891;SDS011;61032;50.782;6.818;2023-11-21T05:50:11;13.15;;;6.95;;
72891;SDS011;61032;50.782;6.818;2023-11-21T05:51:16;16.27;;;8.23;;
72891;SDS011;61032;50.782;6.818;2023-11-21T05:52:17;14.80;;;7.57;;
72891;SDS011;61032;50.782;6.818;2023-11-21T05:53:18;12.93;;;7.57;;
72891;SDS011;61032;50.782;6.818;2023-11-21T05:54:18;14.40;;;8.50;;
72891;SDS011;61032;50.782;6.818;2023-11-21T05:55:19;16.65;;;7.55;;
72891;SDS011;61032;50.782;6.818;2023-11-21T05:56:25;16.70;;;8.30;;
72891;SDS011;61032;50.782;6.818;2023-11-21T05:57:25;18.83;;;8.40;;
72891;SDS011;61032;50.782;6.818;2023-11-21T05:58:26;18.80;;;8.60;;
72891;SDS011;61032;50.782;6.818;2023-11-21T05:59:26;17.80;;;8.77;;
72891;SDS011;61032;50.782;6.818;2023-11-21T06:00:26;15.57;;;8.73;;
72891;SDS011;61032;50.782;6.818;2023-11-21T06:01:27;15.50;;;8.23;;
72891;SDS011;61032;50.782;6.818;2023-11-21T06:02:28;15.88;;;8.27;;
72891;SDS011;61032;50.782;6.818;2023-11-21T06:03:31;17.38;;;8.75;;